Time,TemperatureF,DewpointF,PressureIn,WindDirection,WindDirectionDegrees,WindSpeedMPH,WindSpeedGustMPH,Humidity,HourlyPrecipIn,Conditions,Clouds,dailyrainin,SoftwareType,DateUTC
2013-02-16 00:02:00,32.0,15.0,30.24,NW,325,0.0,-999.0,50,-99.99,,,-99.99,,2013-02-16 06:02:00,
2013-02-16 00:11:00,32.0,15.0,30.24,NW,325,0.0,-999.0,50,-99.99,,,-99.99,,2013-02-16 06:11:00,
2013-02-16 00:21:00,33.0,17.0,30.24,WSW,248,0.0,-999.0,51,-99.99,,,-99.99,,2013-02-16 06:21:00,
2013-02-16 00:32:00,33.0,17.0,30.24,WSW,254,0.0,-999.0,52,-99.99,,,-99.99,,2013-02-16 06:32:00,
2013-02-16 00:42:00,33.0,17.0,30.24,WSW,254,0.0,-999.0,52,-99.99,,,-99.99,,2013-02-16 06:42:00,
2013-02-16 00:52:00,32.0,17.0,30.25,West,274,1.0,-999.0,54,-99.99,,,-99.99,,2013-02-16 06:52:00,
2013-02-16 01:02:00,32.0,18.0,30.24,West,274,1.0,-999.0,56,-99.99,,,-99.99,,2013-02-16 07:02:00,
2013-02-16 01:11:00,32.0,18.0,30.24,West,274,1.0,-999.0,56,-99.99,,,-99.99,,2013-02-16 07:11:00,
2013-02-16 01:21:00,33.0,21.0,30.25,WSW,258,2.0,-999.0,61,-99.99,,,-99.99,,2013-02-16 07:21:00,
2013-02-16 01:31:00,33.0,23.0,30.24,West,274,2.0,-999.0,65,-99.99,,,-99.99,,2013-02-16 07:31:00,
2013-02-16 01:42:00,33.0,23.0,30.24,West,274,2.0,-999.0,65,-99.99,,,-99.99,,2013-02-16 07:42:00,
2013-02-16 01:53:00,34.0,25.0,30.24,West,271,3.0,-999.0,70,-99.99,,,-99.99,,2013-02-16 07:53:00,
2013-02-16 02:01:00,35.0,27.0,30.25,West,274,3.0,-999.0,72,-99.99,,,-99.99,,2013-02-16 08:01:00,
2013-02-16 02:11:00,35.0,27.0,30.25,West,274,3.0,-999.0,72,-99.99,,,-99.99,,2013-02-16 08:11:00,
2013-02-16 02:21:00,34.0,23.0,30.25,NW,320,4.0,-999.0,64,-99.99,,,-99.99,,2013-02-16 08:21:00,
2013-02-16 02:31:00,33.0,23.0,30.26,North,11,3.0,-999.0,66,-99.99,,,-99.99,,2013-02-16 08:31:00,
2013-02-16 02:41:00,33.0,23.0,30.26,North,11,3.0,-999.0,66,-99.99,,,-99.99,,2013-02-16 08:41:00,
2013-02-16 02:52:00,32.0,23.0,30.26,North,360,1.0,-999.0,69,-99.99,,,-99.99,,2013-02-16 08:52:00,
2013-02-16 03:01:00,31.0,22.0,30.26,West,272,1.0,-999.0,70,-99.99,,,-99.99,,2013-02-16 09:01:00,
2013-02-16 03:11:00,31.0,22.0,30.26,West,272,1.0,-999.0,70,-99.99,,,-99.99,,2013-02-16 09:11:00,
2013-02-16 03:21:00,31.0,23.0,30.27,NW,319,1.0,-999.0,72,-99.99,,,-99.99,,2013-02-16 09:21:00,
2013-02-16 03:31:00,31.0,23.0,30.27,NW,304,1.0,-999.0,73,-99.99,,,-99.99,,2013-02-16 09:31:00,
2013-02-16 03:42:00,31.0,23.0,30.27,NW,304,1.0,-999.0,73,-99.99,,,-99.99,,2013-02-16 09:42:00,
2013-02-16 03:52:00,30.0,23.0,30.26,WNW,289,1.0,-999.0,74,-99.99,,,-99.99,,2013-02-16 09:52:00,
2013-02-16 04:01:00,30.0,22.0,30.26,WNW,291,1.0,-999.0,72,-99.99,,,-99.99,,2013-02-16 10:01:00,
2013-02-16 04:11:00,31.0,19.0,30.26,WNW,302,2.0,-999.0,60,-99.99,,,-99.99,,2013-02-16 10:11:00,
2013-02-16 04:21:00,31.0,19.0,30.26,WNW,302,2.0,-999.0,60,-99.99,,,-99.99,,2013-02-16 10:21:00,
2013-02-16 04:31:00,30.0,17.0,30.26,WNW,285,1.0,-999.0,58,-99.99,,,-99.99,,2013-02-16 10:31:00,
2013-02-16 04:41:00,30.0,17.0,30.26,WNW,285,1.0,-999.0,58,-99.99,,,-99.99,,2013-02-16 10:41:00,
2013-02-16 04:52:00,30.0,16.0,30.26,NW,309,2.0,-999.0,55,-99.99,,,-99.99,,2013-02-16 10:52:00,
2013-02-16 05:02:00,30.0,15.0,30.26,WNW,282,2.0,-999.0,54,-99.99,,,-99.99,,2013-02-16 11:02:00,
2013-02-16 05:11:00,30.0,15.0,30.26,WNW,282,2.0,-999.0,54,-99.99,,,-99.99,,2013-02-16 11:11:00,
2013-02-16 05:22:00,29.0,13.0,30.26,West,281,2.0,-999.0,51,-99.99,,,-99.99,,2013-02-16 11:22:00,
2013-02-16 05:32:00,29.0,13.0,30.27,WNW,284,2.0,-999.0,50,-99.99,,,-99.99,,2013-02-16 11:32:00,
2013-02-16 05:42:00,29.0,13.0,30.27,WNW,284,2.0,-999.0,50,-99.99,,,-99.99,,2013-02-16 11:42:00,
2013-02-16 05:52:00,29.0,12.0,30.26,NNW,337,1.0,-999.0,48,-99.99,,,-99.99,,2013-02-16 11:52:00,
2013-02-16 06:01:00,29.0,11.0,30.27,West,267,2.0,-999.0,47,-99.99,,,-99.99,,2013-02-16 12:01:00,
2013-02-16 06:12:00,29.0,11.0,30.27,West,267,2.0,-999.0,47,-99.99,,,-99.99,,2013-02-16 12:12:00,
2013-02-16 06:22:00,28.0,12.0,30.27,WSW,253,1.0,-999.0,51,-99.99,,,-99.99,,2013-02-16 12:22:00,
2013-02-16 06:32:00,27.0,15.0,30.27,SW,236,0.0,-999.0,60,-99.99,,,-99.99,,2013-02-16 12:32:00,
2013-02-16 06:42:00,27.0,15.0,30.27,SW,236,0.0,-999.0,60,-99.99,,,-99.99,,2013-02-16 12:42:00,
2013-02-16 06:52:00,26.0,16.0,30.27,WSW,258,0.0,-999.0,64,-99.99,,,-99.99,,2013-02-16 12:52:00,
2013-02-16 07:02:00,26.0,16.0,30.27,West,264,0.0,-999.0,64,-99.99,,,-99.99,,2013-02-16 13:02:00,
2013-02-16 07:11:00,26.0,16.0,30.27,West,281,1.0,-999.0,65,-99.99,,,-99.99,,2013-02-16 13:11:00,
2013-02-16 07:21:00,26.0,16.0,30.27,West,281,1.0,-999.0,65,-99.99,,,-99.99,,2013-02-16 13:21:00,
2013-02-16 07:31:00,26.0,16.0,30.27,WNW,282,1.0,-999.0,66,-99.99,,,-99.99,,2013-02-16 13:31:00,
2013-02-16 07:41:00,26.0,16.0,30.27,WNW,282,1.0,-999.0,66,-99.99,,,-99.99,,2013-02-16 13:41:00,
2013-02-16 07:51:00,25.0,15.0,30.28,West,281,2.0,-999.0,65,-99.99,,,-99.99,,2013-02-16 13:51:00,
2013-02-16 08:01:00,25.0,15.0,30.28,West,274,2.0,-999.0,65,-99.99,,,-99.99,,2013-02-16 14:01:00,
2013-02-16 08:11:00,25.0,15.0,30.28,West,274,2.0,-999.0,65,-99.99,,,-99.99,,2013-02-16 14:11:00,
2013-02-16 08:21:00,26.0,14.0,30.28,WNW,288,2.0,-999.0,61,-99.99,,,-99.99,,2013-02-16 14:21:00,
2013-02-16 08:32:00,27.0,15.0,30.29,West,278,2.0,-999.0,61,-99.99,,,-99.99,,2013-02-16 14:32:00,
2013-02-16 08:41:00,27.0,15.0,30.29,West,278,2.0,-999.0,61,-99.99,,,-99.99,,2013-02-16 14:41:00,
2013-02-16 08:52:00,27.0,15.0,30.30,West,274,2.0,-999.0,59,-99.99,,,-99.99,,2013-02-16 14:52:00,
2013-02-16 09:01:00,28.0,15.0,30.30,NNW,339,2.0,-999.0,58,-99.99,,,-99.99,,2013-02-16 15:01:00,
2013-02-16 09:11:00,28.0,15.0,30.30,NNW,339,2.0,-999.0,58,-99.99,,,-99.99,,2013-02-16 15:11:00,
2013-02-16 09:21:00,29.0,14.0,30.29,West,277,2.0,-999.0,53,-99.99,,,-99.99,,2013-02-16 15:21:00,
2013-02-16 09:31:00,29.0,12.0,30.30,NW,320,2.0,-999.0,49,-99.99,,,-99.99,,2013-02-16 15:31:00,
2013-02-16 09:41:00,29.0,12.0,30.30,NW,320,2.0,-999.0,49,-99.99,,,-99.99,,2013-02-16 15:41:00,
2013-02-16 09:52:00,30.0,12.0,30.30,WNW,288,2.0,-999.0,46,-99.99,,,-99.99,,2013-02-16 15:52:00,
2013-02-16 10:01:00,31.0,11.0,30.29,North,353,2.0,-999.0,43,-99.99,,,-99.99,,2013-02-16 16:01:00,
2013-02-16 10:11:00,31.0,11.0,30.29,North,353,2.0,-999.0,43,-99.99,,,-99.99,,2013-02-16 16:11:00,
2013-02-16 10:21:00,32.0,12.0,30.30,WNW,299,2.0,-999.0,42,-99.99,,,-99.99,,2013-02-16 16:21:00,
2013-02-16 10:32:00,32.0,10.0,30.30,WNW,299,2.0,-999.0,39,-99.99,,,-99.99,,2013-02-16 16:32:00,
2013-02-16 10:41:00,32.0,10.0,30.30,WNW,299,2.0,-999.0,39,-99.99,,,-99.99,,2013-02-16 16:41:00,
2013-02-16 10:52:00,33.0,9.0,30.29,North,356,2.0,-999.0,36,-99.99,,,-99.99,,2013-02-16 16:52:00,
2013-02-16 11:01:00,34.0,9.0,30.29,WNW,291,2.0,-999.0,35,-99.99,,,-99.99,,2013-02-16 17:01:00,
2013-02-16 11:11:00,34.0,9.0,30.29,WNW,291,2.0,-999.0,35,-99.99,,,-99.99,,2013-02-16 17:11:00,
2013-02-16 11:21:00,34.0,8.0,30.29,NNW,333,2.0,-999.0,33,-99.99,,,-99.99,,2013-02-16 17:21:00,
2013-02-16 11:32:00,34.0,9.0,30.28,WNW,298,2.0,-999.0,34,-99.99,,,-99.99,,2013-02-16 17:32:00,
2013-02-16 11:41:00,34.0,9.0,30.28,WNW,298,2.0,-999.0,34,-99.99,,,-99.99,,2013-02-16 17:41:00,
2013-02-16 11:52:00,35.0,8.0,30.28,WSW,251,2.0,-999.0,32,-99.99,,,-99.99,,2013-02-16 17:52:00,
2013-02-16 12:02:00,35.0,9.0,30.27,WNW,296,1.0,-999.0,33,-99.99,,,-99.99,,2013-02-16 18:02:00,
2013-02-16 12:11:00,36.0,8.0,30.25,NNE,14,0.0,-999.0,31,-99.99,,,-99.99,,2013-02-16 18:11:00,
2013-02-16 12:21:00,36.0,8.0,30.25,NNE,14,0.0,-999.0,31,-99.99,,,-99.99,,2013-02-16 18:21:00,
2013-02-16 12:33:00,37.0,9.0,30.24,NW,312,0.0,-999.0,31,-99.99,,,-99.99,,2013-02-16 18:33:00,
2013-02-16 12:42:00,37.0,9.0,30.24,NW,312,0.0,-999.0,31,-99.99,,,-99.99,,2013-02-16 18:42:00,
2013-02-16 12:52:00,38.0,8.0,30.23,SSW,202,0.0,-999.0,28,-99.99,,,-99.99,,2013-02-16 18:52:00,
2013-02-16 13:02:00,38.0,8.0,30.22,SSW,193,0.0,-999.0,28,-99.99,,,-99.99,,2013-02-16 19:02:00,
2013-02-16 13:11:00,38.0,6.0,30.21,WSW,250,0.0,-999.0,26,-99.99,,,-99.99,,2013-02-16 19:11:00,
2013-02-16 13:21:00,38.0,6.0,30.21,WSW,250,0.0,-999.0,26,-99.99,,,-99.99,,2013-02-16 19:21:00,
2013-02-16 13:31:00,39.0,8.0,30.20,SW,216,0.0,-999.0,27,-99.99,,,-99.99,,2013-02-16 19:31:00,
2013-02-16 13:42:00,39.0,8.0,30.20,SW,216,0.0,-999.0,27,-99.99,,,-99.99,,2013-02-16 19:42:00,
2013-02-16 13:52:00,40.0,8.0,30.18,WSW,240,0.0,-999.0,26,-99.99,,,-99.99,,2013-02-16 19:52:00,
2013-02-16 14:01:00,40.0,10.0,30.17,SSW,202,1.0,-999.0,28,-99.99,,,-99.99,,2013-02-16 20:01:00,
2013-02-16 14:11:00,41.0,10.0,30.16,WSW,239,1.0,-999.0,27,-99.99,,,-99.99,,2013-02-16 20:11:00,
2013-02-16 14:21:00,41.0,10.0,30.16,WSW,239,1.0,-999.0,27,-99.99,,,-99.99,,2013-02-16 20:21:00,
2013-02-16 14:32:00,41.0,10.0,30.16,SSW,196,0.0,-999.0,27,-99.99,,,-99.99,,2013-02-16 20:32:00,
2013-02-16 14:42:00,41.0,10.0,30.14,South,175,1.0,-999.0,27,-99.99,,,-99.99,,2013-02-16 20:42:00,
2013-02-16 14:52:00,41.0,10.0,30.14,South,175,1.0,-999.0,27,-99.99,,,-99.99,,2013-02-16 20:52:00,
2013-02-16 15:02:00,42.0,11.0,30.13,SSE,150,1.0,-999.0,28,-99.99,,,-99.99,,2013-02-16 21:02:00,
2013-02-16 15:11:00,42.0,11.0,30.13,SSE,150,1.0,-999.0,28,-99.99,,,-99.99,,2013-02-16 21:11:00,
2013-02-16 15:21:00,42.0,11.0,30.12,SE,133,1.0,-999.0,28,-99.99,,,-99.99,,2013-02-16 21:21:00,
2013-02-16 15:31:00,43.0,11.0,30.11,SSE,151,0.0,-999.0,27,-99.99,,,-99.99,,2013-02-16 21:31:00,
2013-02-16 15:41:00,43.0,11.0,30.11,SSE,151,0.0,-999.0,27,-99.99,,,-99.99,,2013-02-16 21:41:00,
2013-02-16 15:52:00,43.0,12.0,30.10,WSW,246,1.0,-999.0,28,-99.99,,,-99.99,,2013-02-16 21:52:00,
2013-02-16 16:01:00,44.0,13.0,30.10,South,169,0.0,-999.0,28,-99.99,,,-99.99,,2013-02-16 22:01:00,
2013-02-16 16:11:00,44.0,13.0,30.10,South,169,0.0,-999.0,28,-99.99,,,-99.99,,2013-02-16 22:11:00,
2013-02-16 16:21:00,45.0,13.0,30.09,SSW,206,2.0,-999.0,27,-99.99,,,-99.99,,2013-02-16 22:21:00,
2013-02-16 16:32:00,45.0,12.0,30.09,SSE,168,1.0,-999.0,26,-99.99,,,-99.99,,2013-02-16 22:32:00,
2013-02-16 16:42:00,45.0,12.0,30.09,SSE,168,1.0,-999.0,26,-99.99,,,-99.99,,2013-02-16 22:42:00,
2013-02-16 16:52:00,44.0,13.0,30.09,SW,233,2.0,-999.0,28,-99.99,,,-99.99,,2013-02-16 22:52:00,
2013-02-16 17:02:00,44.0,12.0,30.09,SSW,192,1.0,-999.0,27,-99.99,,,-99.99,,2013-02-16 23:02:00,
2013-02-16 17:11:00,45.0,13.0,30.07,SSW,200,1.0,-999.0,27,-99.99,,,-99.99,,2013-02-16 23:11:00,
2013-02-16 17:21:00,45.0,13.0,30.07,SSW,200,1.0,-999.0,27,-99.99,,,-99.99,,2013-02-16 23:21:00,
2013-02-16 17:31:00,45.0,13.0,30.07,SSW,199,1.0,-999.0,27,-99.99,,,-99.99,,2013-02-16 23:31:00,
2013-02-16 17:42:00,45.0,13.0,30.07,SSW,199,1.0,-999.0,27,-99.99,,,-99.99,,2013-02-16 23:42:00,
2013-02-16 17:52:00,44.0,13.0,30.06,SSE,157,0.0,-999.0,28,-99.99,,,-99.99,,2013-02-16 23:52:00,
2013-02-16 18:02:00,44.0,13.0,30.06,SE,138,1.0,-999.0,28,-99.99,,,-99.99,,2013-02-17 00:02:00,
2013-02-16 18:12:00,44.0,13.0,30.06,SE,138,1.0,-999.0,28,-99.99,,,-99.99,,2013-02-17 00:12:00,
2013-02-16 18:21:00,44.0,15.0,30.06,SSE,160,1.0,-999.0,31,-99.99,,,-99.99,,2013-02-17 00:21:00,
2013-02-16 18:31:00,44.0,15.0,30.06,SSW,195,0.0,-999.0,30,-99.99,,,-99.99,,2013-02-17 00:31:00,
2013-02-16 18:41:00,44.0,15.0,30.06,SSW,195,0.0,-999.0,30,-99.99,,,-99.99,,2013-02-17 00:41:00,
2013-02-16 18:52:00,43.0,15.0,30.06,South,188,0.0,-999.0,32,-99.99,,,-99.99,,2013-02-17 00:52:00,
2013-02-16 19:01:00,43.0,16.0,30.05,South,176,0.0,-999.0,33,-99.99,,,-99.99,,2013-02-17 01:01:00,
2013-02-16 19:11:00,43.0,16.0,30.05,South,176,0.0,-999.0,33,-99.99,,,-99.99,,2013-02-17 01:11:00,
2013-02-16 19:21:00,42.0,16.0,30.05,South,169,0.0,-999.0,35,-99.99,,,-99.99,,2013-02-17 01:21:00,
2013-02-16 19:31:00,41.0,15.0,30.04,SSE,168,0.0,-999.0,35,-99.99,,,-99.99,,2013-02-17 01:31:00,
2013-02-16 19:41:00,41.0,15.0,30.04,SSE,168,0.0,-999.0,35,-99.99,,,-99.99,,2013-02-17 01:41:00,
2013-02-16 19:52:00,41.0,17.0,30.04,SSE,167,0.0,-999.0,37,-99.99,,,-99.99,,2013-02-17 01:52:00,
2013-02-16 20:01:00,40.0,17.0,30.04,SSE,152,0.0,-999.0,39,-99.99,,,-99.99,,2013-02-17 02:01:00,
2013-02-16 20:11:00,40.0,17.0,30.04,SSE,152,0.0,-999.0,39,-99.99,,,-99.99,,2013-02-17 02:11:00,
2013-02-16 20:21:00,39.0,17.0,30.03,SSE,147,0.0,-999.0,41,-99.99,,,-99.99,,2013-02-17 02:21:00,
2013-02-16 20:31:00,38.0,17.0,30.03,SE,131,0.0,-999.0,42,-99.99,,,-99.99,,2013-02-17 02:31:00,
2013-02-16 20:41:00,38.0,17.0,30.03,SE,131,0.0,-999.0,42,-99.99,,,-99.99,,2013-02-17 02:41:00,
2013-02-16 20:52:00,38.0,17.0,30.03,SE,141,0.0,-999.0,42,-99.99,,,-99.99,,2013-02-17 02:52:00,
2013-02-16 21:01:00,38.0,18.0,30.03,SE,143,0.0,-999.0,43,-99.99,,,-99.99,,2013-02-17 03:01:00,
2013-02-16 21:11:00,37.0,17.0,30.03,SE,141,0.0,-999.0,43,-99.99,,,-99.99,,2013-02-17 03:11:00,
2013-02-16 21:21:00,37.0,17.0,30.03,SE,141,0.0,-999.0,43,-99.99,,,-99.99,,2013-02-17 03:21:00,
2013-02-16 21:31:00,37.0,17.0,30.02,SE,141,0.0,-999.0,44,-99.99,,,-99.99,,2013-02-17 03:31:00,
2013-02-16 21:42:00,37.0,17.0,30.02,SE,141,0.0,-999.0,44,-99.99,,,-99.99,,2013-02-17 03:42:00,
2013-02-16 21:52:00,37.0,17.0,30.03,SSE,167,0.0,-999.0,44,-99.99,,,-99.99,,2013-02-17 03:52:00,
2013-02-16 22:01:00,37.0,18.0,30.03,South,182,0.0,-999.0,46,-99.99,,,-99.99,,2013-02-17 04:01:00,
2013-02-16 22:11:00,37.0,18.0,30.02,South,172,0.0,-999.0,46,-99.99,,,-99.99,,2013-02-17 04:11:00,
2013-02-16 22:21:00,37.0,18.0,30.02,South,172,0.0,-999.0,46,-99.99,,,-99.99,,2013-02-17 04:21:00,
2013-02-16 22:31:00,37.0,18.0,30.02,SSE,168,0.0,-999.0,46,-99.99,,,-99.99,,2013-02-17 04:31:00,
2013-02-16 22:41:00,37.0,18.0,30.02,SSE,168,0.0,-999.0,46,-99.99,,,-99.99,,2013-02-17 04:41:00,
2013-02-16 22:52:00,37.0,18.0,30.01,SSW,202,0.0,-999.0,46,-99.99,,,-99.99,,2013-02-17 04:52:00,
2013-02-16 23:01:00,37.0,18.0,30.01,SSE,160,0.0,-999.0,46,-99.99,,,-99.99,,2013-02-17 05:01:00,
2013-02-16 23:12:00,37.0,19.0,30.00,SSE,148,1.0,-999.0,47,-99.99,,,-99.99,,2013-02-17 05:12:00,
2013-02-16 23:22:00,37.0,19.0,30.00,SSE,148,1.0,-999.0,47,-99.99,,,-99.99,,2013-02-17 05:22:00,
2013-02-16 23:32:00,37.0,19.0,30.00,South,191,0.0,-999.0,48,-99.99,,,-99.99,,2013-02-17 05:32:00,
2013-02-16 23:42:00,37.0,19.0,30.00,South,191,0.0,-999.0,48,-99.99,,,-99.99,,2013-02-17 05:42:00,
2013-02-16 23:52:00,36.0,19.0,29.99,SSE,154,1.0,-999.0,49,-99.99,,,-99.99,,2013-02-17 05:52:00,